sensor_id;sensor_type;location;lat;lon;timestamp;pressure;altitude;pressure_sealevel;temperature;humidity
72262;BME280;60173;52.112;8.648;2022-09-21T00:01:06;101609.03;;;5.07;95.05
72262;BME280;60173;52.112;8.648;2022-09-21T00:03:34;101615.38;;;5.01;95.07
72262;BME280;60173;52.112;8.648;2022-09-21T00:06:05;101619.56;;;4.96;94.85
72262;BME280;60173;52.112;8.648;2022-09-21T00:08:32;101620.72;;;4.89;94.95
72262;BME280;60173;52.112;8.648;2022-09-21T00:10:59;101618.47;;;4.86;94.88
72262;BME280;60173;52.112;8.648;2022-09-21T00:13:26;101616.50;;;4.81;95.06
72262;BME280;60173;52.112;8.648;2022-09-21T00:15:54;101620.94;;;4.87;95.42
72262;BME280;60173;52.112;8.648;2022-09-21T00:18:21;101617.94;;;4.95;95.50
72262;BME280;60173;52.112;8.648;2022-09-21T00:20:48;101626.84;;;5.08;95.27
72262;BME280;60173;52.112;8.648;2022-09-21T00:23:14;101624.75;;;5.10;94.88
72262;BME280;60173;52.112;8.648;2022-09-21T00:25:41;101624.25;;;5.01;94.71
72262;BME280;60173;52.112;8.648;2022-09-21T00:28:07;101624.13;;;4.96;94.67
72262;BME280;60173;52.112;8.648;2022-09-21T00:30:33;101623.06;;;4.97;94.90
72262;BME280;60173;52.112;8.648;2022-09-21T00:33:00;101633.63;;;4.98;94.89
72262;BME280;60173;52.112;8.648;2022-09-21T00:35:26;101626.34;;;4.99;94.86
72262;BME280;60173;52.112;8.648;2022-09-21T00:37:52;101630.31;;;4.96;94.77
72262;BME280;60173;52.112;8.648;2022-09-21T00:40:19;101634.09;;;4.95;94.75
72262;BME280;60173;52.112;8.648;2022-09-21T00:42:45;101635.34;;;4.93;94.55
72262;BME280;60173;52.112;8.648;2022-09-21T00:45:12;101624.94;;;4.96;94.50
72262;BME280;60173;52.112;8.648;2022-09-21T00:47:41;101632.56;;;4.99;94.35
72262;BME280;60173;52.112;8.648;2022-09-21T00:50:12;101629.25;;;4.97;94.15
72262;BME280;60173;52.112;8.648;2022-09-21T00:52:42;101632.31;;;4.89;93.93
72262;BME280;60173;52.112;8.648;2022-09-21T00:55:38;101632.88;;;4.91;93.43
72262;BME280;60173;52.112;8.648;2022-09-21T00:58:09;101639.22;;;4.97;93.39
72262;BME280;60173;52.112;8.648;2022-09-21T01:00:38;101633.03;;;5.08;93.17
72262;BME280;60173;52.112;8.648;2022-09-21T01:03:05;101637.34;;;4.97;93.07
72262;BME280;60173;52.112;8.648;2022-09-21T01:05:33;101635.47;;;4.86;93.09
72262;BME280;60173;52.112;8.648;2022-09-21T01:08:00;101639.78;;;4.75;93.28
72262;BME280;60173;52.112;8.648;2022-09-21T01:10:35;101640.13;;;4.79;93.42
72262;BME280;60173;52.112;8.648;2022-09-21T01:13:46;101649.13;;;4.73;93.54
72262;BME280;60173;52.112;8.648;2022-09-21T01:22:46;101645.28;;;4.50;93.47
72262;BME280;60173;52.112;8.648;2022-09-21T01:30:19;101649.81;;;4.38;94.43
72262;BME280;60173;52.112;8.648;2022-09-21T01:32:57;101645.09;;;4.34;94.33
72262;BME280;60173;52.112;8.648;2022-09-21T01:35:30;101651.41;;;4.27;94.33
72262;BME280;60173;52.112;8.648;2022-09-21T01:38:02;101654.31;;;4.26;94.15
72262;BME280;60173;52.112;8.648;2022-09-21T01:40:33;101656.25;;;4.19;94.26
72262;BME280;60173;52.112;8.648;2022-09-21T01:43:03;101655.09;;;4.15;94.35
72262;BME280;60173;52.112;8.648;2022-09-21T01:45:33;101653.16;;;4.03;94.38
72262;BME280;60173;52.112;8.648;2022-09-21T01:48:00;101655.22;;;4.01;94.58
72262;BME280;60173;52.112;8.648;2022-09-21T01:50:31;101653.06;;;4.10;94.82
72262;BME280;60173;52.112;8.648;2022-09-21T01:53:02;101650.88;;;4.19;95.20
72262;BME280;60173;52.112;8.648;2022-09-21T01:55:34;101652.84;;;4.12;94.99
72262;BME280;60173;52.112;8.648;2022-09-21T01:58:18;101656.00;;;4.08;95.02
72262;BME280;60173;52.112;8.648;2022-09-21T02:00:47;101653.88;;;4.11;95.10
72262;BME280;60173;52.112;8.648;2022-09-21T02:03:23;101659.59;;;4.02;95.11
72262;BME280;60173;52.112;8.648;2022-09-21T02:05:52;101658.44;;;4.10;95.05
72262;BME280;60173;52.112;8.648;2022-09-21T02:08:19;101665.69;;;4.10;95.00
72262;BME280;60173;52.112;8.648;2022-09-21T02:10:50;101663.53;;;4.00;94.90
72262;BME280;60173;52.112;8.648;2022-09-21T02:13:18;101666.22;;;4.00;95.20
72262;BME280;60173;52.112;8.648;2022-09-21T02:16:10;101667.69;;;3.96;95.25
72262;BME280;60173;52.112;8.648;2022-09-21T02:24:34;101662.88;;;3.86;95.26
72262;BME280;60173;52.112;8.648;2022-09-21T02:30:06;101662.88;;;3.86;95.11
72262;BME280;60173;52.112;8.648;2022-09-21T02:32:40;101664.50;;;3.87;95.07
72262;BME280;60173;52.112;8.648;2022-09-21T02:37:53;101673.09;;;3.77;94.87
72262;BME280;60173;52.112;8.648;2022-09-21T02:40:26;101663.00;;;3.73;94.93
72262;BME280;60173;52.112;8.648;2022-09-21T02:42:58;101663.16;;;3.78;94.81
72262;BME280;60173;52.112;8.648;2022-09-21T02:45:30;101662.09;;;3.79;94.92
72262;BME280;60173;52.112;8.648;2022-09-21T02:48:20;101660.72;;;3.76;94.97
72262;BME280;60173;52.112;8.648;2022-09-21T02:50:52;101662.09;;;3.79;94.73
72262;BME280;60173;52.112;8.648;2022-09-21T02:53:25;101660.63;;;3.83;94.61
72262;BME280;60173;52.112;8.648;2022-09-21T02:55:54;101660.25;;;3.79;94.31
72262;BME280;60173;52.112;8.648;2022-09-21T02:58:23;101659.50;;;3.72;94.10
72262;BME280;60173;52.112;8.648;2022-09-21T03:00:51;101663.84;;;3.73;94.11
72262;BME280;60173;52.112;8.648;2022-09-21T03:03:21;101653.47;;;3.77;94.25
72262;BME280;60173;52.112;8.648;2022-09-21T03:05:51;101651.59;;;4.14;93.59
72262;BME280;60173;52.112;8.648;2022-09-21T03:08:18;101649.97;;;4.25;92.96
72262;BME280;60173;52.112;8.648;2022-09-21T03:10:45;101653.00;;;4.17;92.69
72262;BME280;60173;52.112;8.648;2022-09-21T03:13:11;101659.13;;;4.05;93.07
72262;BME280;60173;52.112;8.648;2022-09-21T03:15:39;101657.34;;;3.99;93.23
72262;BME280;60173;52.112;8.648;2022-09-21T03:18:07;101665.72;;;3.91;93.27
72262;BME280;60173;52.112;8.648;2022-09-21T03:20:35;101662.56;;;3.94;93.52
72262;BME280;60173;52.112;8.648;2022-09-21T03:23:02;101664.03;;;3.90;93.57
72262;BME280;60173;52.112;8.648;2022-09-21T03:25:29;101667.78;;;3.89;93.62
72262;BME280;60173;52.112;8.648;2022-09-21T03:27:56;101658.31;;;3.87;93.63
72262;BME280;60173;52.112;8.648;2022-09-21T03:30:24;101665.38;;;3.81;93.83
72262;BME280;60173;52.112;8.648;2022-09-21T03:32:52;101664.22;;;3.77;94.02
72262;BME280;60173;52.112;8.648;2022-09-21T03:35:20;101669.50;;;3.65;93.74
72262;BME280;60173;52.112;8.648;2022-09-21T03:37:48;101668.00;;;3.69;93.88
72262;BME280;60173;52.112;8.648;2022-09-21T03:40:15;101668.00;;;3.69;94.03
72262;BME280;60173;52.112;8.648;2022-09-21T03:42:42;101669.06;;;3.68;93.87
72262;BME280;60173;52.112;8.648;2022-09-21T03:45:10;101670.59;;;3.57;94.04
72262;BME280;60173;52.112;8.648;2022-09-21T03:47:37;101678.50;;;3.52;94.24
72262;BME280;60173;52.112;8.648;2022-09-21T03:50:05;101675.22;;;3.50;94.38
72262;BME280;60173;52.112;8.648;2022-09-21T03:52:35;101686.34;;;3.54;94.64
72262;BME280;60173;52.112;8.648;2022-09-21T03:55:02;101681.78;;;3.54;94.84
72262;BME280;60173;52.112;8.648;2022-09-21T03:57:28;101684.91;;;3.51;94.95
72262;BME280;60173;52.112;8.648;2022-09-21T03:59:55;101676.09;;;3.44;95.05
72262;BME280;60173;52.112;8.648;2022-09-21T04:02:21;101684.00;;;3.39;95.12
72262;BME280;60173;52.112;8.648;2022-09-21T04:04:47;101678.00;;;3.37;95.13
72262;BME280;60173;52.112;8.648;2022-09-21T04:07:14;101683.13;;;3.45;95.17
72262;BME280;60173;52.112;8.648;2022-09-21T04:09:40;101680.44;;;3.45;95.13
72262;BME280;60173;52.112;8.648;2022-09-21T04:12:07;101681.06;;;3.40;95.01
72262;BME280;60173;52.112;8.648;2022-09-21T04:14:33;101681.31;;;3.39;95.13
72262;BME280;60173;52.112;8.648;2022-09-21T04:16:59;101675.06;;;3.45;95.13
72262;BME280;60173;52.112;8.648;2022-09-21T04:19:25;101680.59;;;3.50;95.26
72262;BME280;60173;52.112;8.648;2022-09-21T04:21:52;101685.91;;;3.57;95.35
72262;BME280;60173;52.112;8.648;2022-09-21T04:24:18;101681.50;;;3.62;95.34
72262;BME280;60173;52.112;8.648;2022-09-21T04:26:44;101677.59;;;3.58;95.33
72262;BME280;60173;52.112;8.648;2022-09-21T04:29:12;101685.09;;;3.56;95.30
72262;BME280;60173;52.112;8.648;2022-09-21T04:31:39;101684.63;;;3.59;95.04
72262;BME280;60173;52.112;8.648;2022-09-21T04:34:06;101685.09;;;3.56;94.71
72262;BME280;60173;52.112;8.648;2022-09-21T04:36:32;101687.44;;;3.46;94.55
72262;BME280;60173;52.112;8.648;2022-09-21T04:39:03;101685.19;;;3.43;94.52
72262;BME280;60173;52.112;8.648;2022-09-21T04:41:30;101684.44;;;3.36;94.62
72262;BME280;60173;52.112;8.648;2022-09-21T04:43:56;101685.63;;;3.40;94.75
72262;BME280;60173;52.112;8.648;2022-09-21T04:46:22;101685.81;;;3.45;94.64
72262;BME280;60173;52.112;8.648;2022-09-21T04:48:49;101688.13;;;3.42;94.63
72262;BME280;60173;52.112;8.648;2022-09-21T04:51:16;101689.31;;;3.46;94.61
72262;BME280;60173;52.112;8.648;2022-09-21T04:53:42;101685.91;;;3.57;94.66
72262;BME280;60173;52.112;8.648;2022-09-21T04:56:12;101688.94;;;3.60;94.13
72262;BME280;60173;52.112;8.648;2022-09-21T04:58:39;101690.75;;;3.67;94.23
72262;BME280;60173;52.112;8.648;2022-09-21T05:01:05;101692.41;;;3.68;94.18
72262;BME280;60173;52.112;8.648;2022-09-21T05:03:32;101695.84;;;3.75;94.10
72262;BME280;60173;52.112;8.648;2022-09-21T05:05:58;101698.53;;;3.75;94.33
72262;BME280;60173;52.112;8.648;2022-09-21T05:08:25;101696.28;;;3.72;94.64
72262;BME280;60173;52.112;8.648;2022-09-21T05:10:52;101700.59;;;3.73;94.69
72262;BME280;60173;52.112;8.648;2022-09-21T05:13:18;101707.19;;;3.77;94.71
72262;BME280;60173;52.112;8.648;2022-09-21T05:15:45;101714.81;;;3.98;94.92
72262;BME280;60173;52.112;8.648;2022-09-21T05:18:11;101707.22;;;3.95;94.99
72262;BME280;60173;52.112;8.648;2022-09-21T05:20:37;101710.50;;;3.97;95.12
72262;BME280;60173;52.112;8.648;2022-09-21T05:23:04;101716.09;;;3.96;95.05
72262;BME280;60173;52.112;8.648;2022-09-21T05:25:30;101721.47;;;3.96;95.24
72262;BME280;60173;52.112;8.648;2022-09-21T05:27:56;101724.56;;;3.99;95.39
72262;BME280;60173;52.112;8.648;2022-09-21T05:30:23;101729.31;;;3.97;95.28
72262;BME280;60173;52.112;8.648;2022-09-21T05:33:00;101724.31;;;4.01;95.23
72262;BME280;60173;52.112;8.648;2022-09-21T05:35:38;101728.88;;;4.00;95.37
72262;BME280;60173;52.112;8.648;2022-09-21T05:38:18;101730.22;;;4.10;95.31
72262;BME280;60173;52.112;8.648;2022-09-21T05:40:45;101724.91;;;4.21;95.17
72262;BME280;60173;52.112;8.648;2022-09-21T05:43:12;101728.56;;;4.27;95.06
72262;BME280;60173;52.112;8.648;2022-09-21T05:45:45;101725.06;;;4.26;94.78
72262;BME280;60173;52.112;8.648;2022-09-21T05:48:18;101728.47;;;4.34;94.58
72262;BME280;60173;52.112;8.648;2022-09-21T05:50:57;101732.91;;;4.46;94.44
72262;BME280;60173;52.112;8.648;2022-09-21T05:53:38;101732.91;;;4.46;93.89
72262;BME280;60173;52.112;8.648;2022-09-21T06:04:20;101736.75;;;4.69;92.19
72262;BME280;60173;52.112;8.648;2022-09-21T06:06:46;101738.91;;;4.79;92.06
72262;BME280;60173;52.112;8.648;2022-09-21T06:09:12;101740.81;;;4.90;91.79
72262;BME280;60173;52.112;8.648;2022-09-21T06:11:39;101737.91;;;5.03;91.45
72262;BME280;60173;52.112;8.648;2022-09-21T06:14:05;101748.78;;;4.96;90.88
72262;BME280;60173;52.112;8.648;2022-09-21T06:16:39;101748.81;;;5.08;91.14
72262;BME280;60173;52.112;8.648;2022-09-21T06:19:06;101748.41;;;5.23;90.80
72262;BME280;60173;52.112;8.648;2022-09-21T06:21:32;101747.38;;;5.36;90.33
72262;BME280;60173;52.112;8.648;2022-09-21T06:23:58;101755.13;;;5.32;90.01
72262;BME280;60173;52.112;8.648;2022-09-21T06:26:26;101747.72;;;5.39;89.91
72262;BME280;60173;52.112;8.648;2022-09-21T06:28:52;101743.03;;;5.47;89.59
72262;BME280;60173;52.112;8.648;2022-09-21T06:31:18;101745.41;;;5.55;89.66
72262;BME280;60173;52.112;8.648;2022-09-21T06:33:45;101739.34;;;5.71;89.75
72262;BME280;60173;52.112;8.648;2022-09-21T06:36:13;101742.84;;;5.83;89.46
72262;BME280;60173;52.112;8.648;2022-09-21T06:38:40;101744.50;;;5.84;89.10
72262;BME280;60173;52.112;8.648;2022-09-21T06:41:06;101741.34;;;5.99;88.96
72262;BME280;60173;52.112;8.648;2022-09-21T06:43:32;101742.97;;;6.12;88.73
72262;BME280;60173;52.112;8.648;2022-09-21T06:46:00;101739.56;;;6.28;88.14
72262;BME280;60173;52.112;8.648;2022-09-21T06:48:28;101743.84;;;6.41;87.77
72262;BME280;60173;52.112;8.648;2022-09-21T06:50:59;101746.09;;;6.32;87.52
72262;BME280;60173;52.112;8.648;2022-09-21T06:53:26;101753.81;;;6.41;87.69
72262;BME280;60173;52.112;8.648;2022-09-21T06:55:53;101749.47;;;6.51;87.49
72262;BME280;60173;52.112;8.648;2022-09-21T06:58:19;101749.00;;;6.54;87.41
72262;BME280;60173;52.112;8.648;2022-09-21T07:00:46;101752.25;;;6.68;87.67
72262;BME280;60173;52.112;8.648;2022-09-21T07:03:12;101752.78;;;6.70;87.53
72262;BME280;60173;52.112;8.648;2022-09-21T07:05:39;101750.13;;;6.59;87.19
72262;BME280;60173;52.112;8.648;2022-09-21T07:08:05;101757.81;;;6.78;87.23
72262;BME280;60173;52.112;8.648;2022-09-21T07:10:32;101750.88;;;6.83;87.55
72262;BME280;60173;52.112;8.648;2022-09-21T07:13:02;101753.94;;;6.86;86.46
72262;BME280;60173;52.112;8.648;2022-09-21T07:15:28;101752.25;;;7.14;85.65
72262;BME280;60173;52.112;8.648;2022-09-21T07:17:55;101758.31;;;7.04;86.52
72262;BME280;60173;52.112;8.648;2022-09-21T07:20:30;101756.53;;;7.27;85.68
72262;BME280;60173;52.112;8.648;2022-09-21T07:22:57;101756.19;;;7.06;85.68
72262;BME280;60173;52.112;8.648;2022-09-21T07:25:23;101761.44;;;6.84;87.27
72262;BME280;60173;52.112;8.648;2022-09-21T07:27:49;101757.63;;;6.97;87.68
72262;BME280;60173;52.112;8.648;2022-09-21T07:30:16;101759.28;;;6.98;88.04
72262;BME280;60173;52.112;8.648;2022-09-21T07:32:42;101756.69;;;7.37;87.07
72262;BME280;60173;52.112;8.648;2022-09-21T07:35:08;101769.50;;;7.58;85.53
72262;BME280;60173;52.112;8.648;2022-09-21T07:37:35;101763.81;;;7.43;86.75
72262;BME280;60173;52.112;8.648;2022-09-21T07:40:01;101764.00;;;7.70;86.21
72262;BME280;60173;52.112;8.648;2022-09-21T07:42:28;101760.13;;;7.83;85.51
72262;BME280;60173;52.112;8.648;2022-09-21T07:44:54;101757.34;;;7.78;85.78
72262;BME280;60173;52.112;8.648;2022-09-21T07:47:29;101758.78;;;8.19;85.27
72262;BME280;60173;52.112;8.648;2022-09-21T07:49:56;101765.63;;;8.27;84.75
72262;BME280;60173;52.112;8.648;2022-09-21T07:52:22;101758.88;;;8.46;84.51
72262;BME280;60173;52.112;8.648;2022-09-21T07:54:48;101753.97;;;8.43;84.66
72262;BME280;60173;52.112;8.648;2022-09-21T07:57:14;101756.75;;;8.31;85.44
72262;BME280;60173;52.112;8.648;2022-09-21T07:59:41;101765.25;;;8.57;85.19
72262;BME280;60173;52.112;8.648;2022-09-21T08:02:07;101759.84;;;8.84;84.75
72262;BME280;60173;52.112;8.648;2022-09-21T08:04:34;101752.38;;;8.96;84.35
72262;BME280;60173;52.112;8.648;2022-09-21T08:07:00;101752.00;;;8.82;84.55
72262;BME280;60173;52.112;8.648;2022-09-21T08:09:26;101761.16;;;8.81;84.83
72262;BME280;60173;52.112;8.648;2022-09-21T08:11:53;101760.97;;;9.15;84.90
72262;BME280;60173;52.112;8.648;2022-09-21T08:14:19;101759.19;;;9.26;82.86
72262;BME280;60173;52.112;8.648;2022-09-21T08:16:51;101763.19;;;9.50;82.75
72262;BME280;60173;52.112;8.648;2022-09-21T08:19:18;101772.03;;;9.73;81.76
72262;BME280;60173;52.112;8.648;2022-09-21T08:21:47;101761.84;;;9.90;81.86
72262;BME280;60173;52.112;8.648;2022-09-21T08:24:17;101762.03;;;10.21;81.47
72262;BME280;60173;52.112;8.648;2022-09-21T08:26:44;101759.72;;;10.40;80.14
72262;BME280;60173;52.112;8.648;2022-09-21T08:29:10;101760.03;;;10.54;80.12
72262;BME280;60173;52.112;8.648;2022-09-21T08:31:37;101765.81;;;10.68;79.19
72262;BME280;60173;52.112;8.648;2022-09-21T08:34:03;101770.97;;;10.74;79.32
72262;BME280;60173;52.112;8.648;2022-09-21T08:36:30;101762.31;;;10.82;79.45
72262;BME280;60173;52.112;8.648;2022-09-21T08:38:56;101767.75;;;10.82;79.43
72262;BME280;60173;52.112;8.648;2022-09-21T08:44:28;101771.56;;;10.92;78.37
72262;BME280;60173;52.112;8.648;2022-09-21T08:49:50;101763.47;;;11.22;79.30
72262;BME280;60173;52.112;8.648;2022-09-21T08:52:20;101763.22;;;11.44;78.28
72262;BME280;60173;52.112;8.648;2022-09-21T08:57:15;101770.81;;;11.42;77.72
72262;BME280;60173;52.112;8.648;2022-09-21T08:59:46;101773.00;;;11.56;77.34
72262;BME280;60173;52.112;8.648;2022-09-21T09:07:57;101763.72;;;11.82;76.43
72262;BME280;60173;52.112;8.648;2022-09-21T09:18:54;101768.63;;;12.06;75.44
72262;BME280;60173;52.112;8.648;2022-09-21T09:21:34;101766.69;;;12.21;74.54
72262;BME280;60173;52.112;8.648;2022-09-21T09:24:08;101768.34;;;12.02;74.73
72262;BME280;60173;52.112;8.648;2022-09-21T09:31:44;101753.25;;;12.40;73.36
72262;BME280;60173;52.112;8.648;2022-09-21T09:34:17;101750.84;;;12.34;72.89
72262;BME280;60173;52.112;8.648;2022-09-21T09:36:55;101760.84;;;13.03;70.58
72262;BME280;60173;52.112;8.648;2022-09-21T09:39:27;101763.22;;;13.15;69.39
72262;BME280;60173;52.112;8.648;2022-09-21T09:50:07;101749.03;;;13.52;66.40
72262;BME280;60173;52.112;8.648;2022-09-21T09:52:35;101759.91;;;13.57;65.78
72262;BME280;60173;52.112;8.648;2022-09-21T09:55:16;101757.16;;;13.63;65.75
72262;BME280;60173;52.112;8.648;2022-09-21T09:57:43;101751.00;;;13.76;66.63
72262;BME280;60173;52.112;8.648;2022-09-21T10:00:13;101753.53;;;13.96;66.80
72262;BME280;60173;52.112;8.648;2022-09-21T10:07:55;101752.19;;;14.42;62.84
72262;BME280;60173;52.112;8.648;2022-09-21T10:13:01;101753.75;;;14.48;63.33
72262;BME280;60173;52.112;8.648;2022-09-21T10:15:28;101749.34;;;14.76;62.84
72262;BME280;60173;52.112;8.648;2022-09-21T10:18:51;101742.22;;;14.94;60.67
72262;BME280;60173;52.112;8.648;2022-09-21T10:21:00;101744.63;;;13.56;62.96
72262;BME280;60173;52.112;8.648;2022-09-21T10:23:29;101741.03;;;14.38;62.19
72262;BME280;60173;52.112;8.648;2022-09-21T10:26:03;101742.16;;;14.61;60.42
72262;BME280;60173;52.112;8.648;2022-09-21T10:28:30;101736.91;;;15.03;60.93
72262;BME280;60173;52.112;8.648;2022-09-21T10:31:11;101742.63;;;15.39;56.44
72262;BME280;60173;52.112;8.648;2022-09-21T10:33:53;101744.63;;;15.66;56.15
72262;BME280;60173;52.112;8.648;2022-09-21T10:36:39;101745.22;;;16.10;54.57
72262;BME280;60173;52.112;8.648;2022-09-21T10:39:18;101738.63;;;16.24;53.02
72262;BME280;60173;52.112;8.648;2022-09-21T10:42:03;101730.50;;;15.92;53.26
72262;BME280;60173;52.112;8.648;2022-09-21T10:44:38;101726.34;;;16.22;53.21
72262;BME280;60173;52.112;8.648;2022-09-21T10:47:33;101738.53;;;16.16;54.00
72262;BME280;60173;52.112;8.648;2022-09-21T10:50:03;101732.81;;;16.40;53.74
72262;BME280;60173;52.112;8.648;2022-09-21T10:52:36;101730.78;;;16.45;50.59
72262;BME280;60173;52.112;8.648;2022-09-21T10:55:05;101725.53;;;16.35;50.73
72262;BME280;60173;52.112;8.648;2022-09-21T10:57:33;101722.69;;;16.13;50.48
72262;BME280;60173;52.112;8.648;2022-09-21T11:02:48;101728.56;;;16.34;51.93
72262;BME280;60173;52.112;8.648;2022-09-21T11:05:31;101726.13;;;16.18;53.16
72262;BME280;60173;52.112;8.648;2022-09-21T11:08:17;101732.63;;;15.95;52.37
72262;BME280;60173;52.112;8.648;2022-09-21T11:11:02;101727.28;;;14.86;53.76
72262;BME280;60173;52.112;8.648;2022-09-21T11:13:43;101725.59;;;14.72;54.18
72262;BME280;60173;52.112;8.648;2022-09-21T11:16:21;101720.56;;;14.60;53.27
72262;BME280;60173;52.112;8.648;2022-09-21T11:19:03;101728.75;;;14.98;53.76
72262;BME280;60173;52.112;8.648;2022-09-21T11:21:43;101722.16;;;15.69;51.94
72262;BME280;60173;52.112;8.648;2022-09-21T11:24:36;101728.47;;;15.65;51.27
72262;BME280;60173;52.112;8.648;2022-09-21T11:27:50;101724.22;;;15.58;50.81
72262;BME280;60173;52.112;8.648;2022-09-21T11:35:34;101711.91;;;16.16;48.81
72262;BME280;60173;52.112;8.648;2022-09-21T11:38:13;101705.44;;;16.12;48.39
72262;BME280;60173;52.112;8.648;2022-09-21T11:41:08;101708.28;;;16.07;51.07
72262;BME280;60173;52.112;8.648;2022-09-21T11:43:45;101710.25;;;16.57;52.11
72262;BME280;60173;52.112;8.648;2022-09-21T11:54:55;101700.66;;;16.18;50.00
72262;BME280;60173;52.112;8.648;2022-09-21T12:00:29;101692.88;;;16.61;49.53
72262;BME280;60173;52.112;8.648;2022-09-21T12:06:15;101685.59;;;16.43;51.92
72262;BME280;60173;52.112;8.648;2022-09-21T12:11:36;101689.88;;;16.85;49.76
72262;BME280;60173;52.112;8.648;2022-09-21T12:22:27;101679.34;;;16.79;49.61
72262;BME280;60173;52.112;8.648;2022-09-21T12:25:03;101671.63;;;16.67;49.07
72262;BME280;60173;52.112;8.648;2022-09-21T12:27:37;101680.25;;;16.10;50.71
72262;BME280;60173;52.112;8.648;2022-09-21T12:30:19;101679.66;;;15.72;50.35
72262;BME280;60173;52.112;8.648;2022-09-21T12:33:00;101668.34;;;15.13;52.11
72262;BME280;60173;52.112;8.648;2022-09-21T12:35:35;101668.38;;;14.75;52.96
72262;BME280;60173;52.112;8.648;2022-09-21T12:40:57;101665.09;;;14.78;52.73
72262;BME280;60173;52.112;8.648;2022-09-21T12:43:34;101671.97;;;15.08;53.20
72262;BME280;60173;52.112;8.648;2022-09-21T12:46:08;101667.78;;;14.97;51.96
72262;BME280;60173;52.112;8.648;2022-09-21T12:48:38;101670.13;;;15.04;52.14
72262;BME280;60173;52.112;8.648;2022-09-21T12:51:25;101660.72;;;15.43;51.96
72262;BME280;60173;52.112;8.648;2022-09-21T12:53:56;101658.22;;;15.27;52.06
72262;BME280;60173;52.112;8.648;2022-09-21T12:56:44;101662.19;;;15.81;51.46
72262;BME280;60173;52.112;8.648;2022-09-21T12:59:47;101660.16;;;15.73;47.78
72262;BME280;60173;52.112;8.648;2022-09-21T13:02:39;101650.53;;;16.17;47.86
72262;BME280;60173;52.112;8.648;2022-09-21T13:05:22;101649.13;;;16.06;48.34
72262;BME280;60173;52.112;8.648;2022-09-21T13:08:32;101653.19;;;15.95;46.92
72262;BME280;60173;52.112;8.648;2022-09-21T13:11:02;101648.50;;;16.23;48.73
72262;BME280;60173;52.112;8.648;2022-09-21T13:13:45;101651.88;;;16.42;47.43
72262;BME280;60173;52.112;8.648;2022-09-21T13:16:30;101651.78;;;16.47;47.96
72262;BME280;60173;52.112;8.648;2022-09-21T13:19:02;101648.66;;;15.57;46.46
72262;BME280;60173;52.112;8.648;2022-09-21T13:21:31;101641.59;;;15.98;46.70
72262;BME280;60173;52.112;8.648;2022-09-21T13:24:03;101643.28;;;15.52;46.80
72262;BME280;60173;52.112;8.648;2022-09-21T13:26:36;101638.44;;;15.91;45.52
72262;BME280;60173;52.112;8.648;2022-09-21T13:34:38;101636.75;;;16.45;44.02
72262;BME280;60173;52.112;8.648;2022-09-21T13:39:34;101628.66;;;17.30;43.60
72262;BME280;60173;52.112;8.648;2022-09-21T13:45:00;101625.69;;;16.95;42.42
72262;BME280;60173;52.112;8.648;2022-09-21T13:47:34;101625.75;;;16.59;44.73
72262;BME280;60173;52.112;8.648;2022-09-21T13:50:25;101620.31;;;16.31;44.26
72262;BME280;60173;52.112;8.648;2022-09-21T13:52:55;101621.28;;;16.26;46.33
72262;BME280;60173;52.112;8.648;2022-09-21T13:57:53;101617.63;;;16.90;48.12
72262;BME280;60173;52.112;8.648;2022-09-21T14:05:38;101606.16;;;17.50;44.07
72262;BME280;60173;52.112;8.648;2022-09-21T14:08:30;101611.72;;;17.68;44.61
72262;BME280;60173;52.112;8.648;2022-09-21T14:11:21;101605.41;;;17.67;42.13
72262;BME280;60173;52.112;8.648;2022-09-21T14:19:00;101602.41;;;17.86;40.88
72262;BME280;60173;52.112;8.648;2022-09-21T14:21:27;101597.28;;;18.11;41.61
72262;BME280;60173;52.112;8.648;2022-09-21T14:32:02;101591.00;;;18.27;40.62
72262;BME280;60173;52.112;8.648;2022-09-21T14:34:34;101591.66;;;18.33;41.99
72262;BME280;60173;52.112;8.648;2022-09-21T14:37:05;101583.56;;;18.28;40.92
72262;BME280;60173;52.112;8.648;2022-09-21T14:39:38;101587.44;;;18.36;42.21
72262;BME280;60173;52.112;8.648;2022-09-21T14:42:29;101583.75;;;18.23;41.49
72262;BME280;60173;52.112;8.648;2022-09-21T14:45:00;101581.94;;;18.27;40.84
72262;BME280;60173;52.112;8.648;2022-09-21T14:50:23;101579.72;;;17.72;42.80
72262;BME280;60173;52.112;8.648;2022-09-21T14:56:08;101575.13;;;17.98;41.36
72262;BME280;60173;52.112;8.648;2022-09-21T14:59:05;101572.63;;;17.71;42.10
72262;BME280;60173;52.112;8.648;2022-09-21T15:01:37;101576.03;;;16.60;43.86
72262;BME280;60173;52.112;8.648;2022-09-21T15:07:01;101567.84;;;16.83;43.70
72262;BME280;60173;52.112;8.648;2022-09-21T15:12:45;101564.97;;;16.65;44.34
72262;BME280;60173;52.112;8.648;2022-09-21T15:15:32;101562.97;;;16.57;44.60
72262;BME280;60173;52.112;8.648;2022-09-21T15:18:00;101560.56;;;17.09;44.16
72262;BME280;60173;52.112;8.648;2022-09-21T15:20:34;101567.91;;;16.91;43.69
72262;BME280;60173;52.112;8.648;2022-09-21T15:23:01;101561.56;;;17.13;42.87
72262;BME280;60173;52.112;8.648;2022-09-21T15:25:31;101561.13;;;17.20;43.97
72262;BME280;60173;52.112;8.648;2022-09-21T15:27:58;101554.34;;;16.95;45.08
72262;BME280;60173;52.112;8.648;2022-09-21T15:30:26;101562.78;;;16.99;45.06
72262;BME280;60173;52.112;8.648;2022-09-21T15:32:55;101559.38;;;16.93;45.15
72262;BME280;60173;52.112;8.648;2022-09-21T15:35:25;101557.75;;;16.47;45.65
72262;BME280;60173;52.112;8.648;2022-09-21T15:37:53;101558.66;;;16.42;46.00
72262;BME280;60173;52.112;8.648;2022-09-21T15:40:21;101570.34;;;16.12;45.50
72262;BME280;60173;52.112;8.648;2022-09-21T15:45:46;101567.00;;;16.01;45.96
72262;BME280;60173;52.112;8.648;2022-09-21T15:48:13;101558.88;;;16.10;44.40
72262;BME280;60173;52.112;8.648;2022-09-21T15:50:40;101559.47;;;16.20;45.19
72262;BME280;60173;52.112;8.648;2022-09-21T15:53:16;101559.66;;;16.24;45.19
72262;BME280;60173;52.112;8.648;2022-09-21T15:55:46;101561.44;;;16.28;44.37